createdAt,value
2019-04-10T00:04:36.963Z,100016.17
2019-04-10T00:09:41.295Z,100025.29
2019-04-10T00:14:45.009Z,100024.50
2019-04-10T00:19:48.502Z,100017.38
2019-04-10T00:24:52.456Z,100015.99
2019-04-10T00:29:56.473Z,100018.77
2019-04-10T00:35:00.288Z,100030.48
2019-04-10T00:40:04.432Z,100028.31
2019-04-10T00:45:09.144Z,100036.05
2019-04-10T00:50:12.843Z,100031.88
2019-04-10T00:55:16.458Z,100023.22
2019-04-10T01:00:21.848Z,100025.21
2019-04-10T01:05:25.461Z,100030.16
2019-04-10T01:10:28.928Z,100032.94
2019-04-10T01:15:32.393Z,100030.59
2019-04-10T01:20:35.853Z,100032.16
2019-04-10T01:25:39.341Z,100029.98
2019-04-10T01:30:42.829Z,100025.46
2019-04-10T01:35:46.705Z,100028.23
2019-04-10T01:40:51.163Z,100032.83
2019-04-10T01:45:54.746Z,100027.70
2019-04-10T01:50:59.041Z,100032.05
2019-04-10T01:56:03.100Z,100029.09
2019-04-10T02:01:08.350Z,100019.37
2019-04-10T02:06:11.827Z,100022.78
2019-04-10T02:11:15.490Z,100016.44
2019-04-10T02:16:19.045Z,100010.53
2019-04-10T02:21:23.450Z,100010.89
2019-04-10T02:26:27.685Z,100012.10
2019-04-10T02:31:32.018Z,100013.48
2019-04-10T02:36:36.231Z,100014.70
2019-04-10T02:41:41.773Z,100013.31
2019-04-10T02:46:45.253Z,100009.75
2019-04-10T02:51:49.823Z,100011.14
2019-04-10T02:56:54.899Z,99999.84
2019-04-10T03:02:00.127Z,99999.24
2019-04-10T03:07:04.357Z,100002.87
2019-04-10T03:12:08.925Z,100006.44
2019-04-10T03:17:13.181Z,100013.05
2019-04-10T03:22:16.736Z,100013.05
2019-04-10T03:27:20.564Z,100019.21
2019-04-10T03:32:50.276Z,100018.42
2019-04-10T03:37:48.963Z,100019.03
2019-04-10T03:42:53.050Z,100030.31
2019-04-10T03:47:57.861Z,100032.31
2019-04-10T03:53:02.138Z,100019.03
2019-04-10T03:58:05.705Z,100021.62
2019-04-10T04:03:09.193Z,100026.58
2019-04-10T04:08:13.090Z,100026.22
2019-04-10T04:13:17.467Z,100029.00
2019-04-10T04:18:21.361Z,100031.35
2019-04-10T04:23:25.731Z,100033.77
2019-04-10T04:28:29.844Z,100046.27
2019-04-10T04:33:34.095Z,100040.11
2019-04-10T04:38:37.621Z,100035.58
2019-04-10T04:43:43.386Z,100040.37
2019-04-10T04:48:47.394Z,100053.63
2019-04-10T04:53:50.957Z,100056.86
2019-04-10T04:58:54.434Z,100059.03
2019-04-10T05:03:58.264Z,100065.20
2019-04-10T05:09:02.784Z,100067.79
2019-04-10T05:14:06.950Z,100070.56
2019-04-10T05:19:10.503Z,100070.39
2019-04-10T05:24:13.976Z,100085.06
2019-04-10T05:29:18.222Z,100078.11
2019-04-10T05:34:21.976Z,100082.09
2019-04-10T05:39:26.698Z,100086.27
2019-04-10T05:44:31.802Z,100086.87
2019-04-10T05:49:35.326Z,100086.27
2019-04-10T05:54:39.589Z,100083.48
2019-04-10T05:59:43.937Z,100088.44
2019-04-10T06:04:47.643Z,100093.20
2019-04-10T06:09:55.973Z,100084.70
2019-04-10T06:14:56.696Z,100083.91
2019-04-10T06:20:00.799Z,100083.31
2019-04-10T06:25:08.426Z,100092.84
2019-04-10T06:30:12.079Z,100090.86
2019-04-10T06:35:15.725Z,100090.25
2019-04-10T06:40:22.511Z,100092.24
2019-04-10T06:45:24.382Z,100097.73
2019-04-10T06:50:29.451Z,100097.58
2019-04-10T06:55:33.253Z,100109.48
2019-04-10T07:00:37.029Z,100099.55
2019-04-10T07:05:49.675Z,100103.62
2019-04-10T07:10:54.147Z,100102.92
2019-04-10T07:15:54.463Z,100103.55
2019-04-10T07:20:59.613Z,100105.49
2019-04-10T07:26:01.852Z,100102.38
2019-04-10T07:31:08.185Z,100104.53
2019-04-10T07:36:13.655Z,100112.17
2019-04-10T07:41:21.015Z,100108.02
2019-04-10T07:46:21.838Z,100113.67
2019-04-10T07:51:25.637Z,100108.13
2019-04-10T07:56:29.192Z,100123.09
2019-04-10T08:01:33.444Z,100129.23
2019-04-10T08:06:37.400Z,100125.71
2019-04-10T08:11:40.972Z,100125.54
2019-04-10T08:16:45.519Z,100124.58
2019-04-10T08:21:49.190Z,100134.48
2019-04-10T08:26:52.846Z,100129.64
2019-04-10T08:31:56.336Z,100139.95
2019-04-10T08:36:59.813Z,100140.41
2019-04-10T08:42:03.299Z,100140.08
2019-04-10T08:47:06.834Z,100138.94
2019-04-10T08:52:10.433Z,100143.95
2019-04-10T08:57:13.909Z,100149.56
2019-04-10T09:02:18.047Z,100123.73
2019-04-10T09:07:22.193Z,100126.98
2019-04-10T09:12:26.080Z,100124.87
2019-04-10T09:17:29.640Z,100128.16
2019-04-10T09:22:49.795Z,100137.39
2019-04-10T09:27:38.331Z,100155.34
2019-04-10T09:32:42.389Z,100132.74
2019-04-10T09:37:46.336Z,100123.22
2019-04-10T09:42:50.059Z,100125.13
2019-04-10T09:47:53.589Z,100137.98
2019-04-10T09:52:57.065Z,100125.31
2019-04-10T09:58:00.542Z,100136.67
2019-04-10T10:03:04.035Z,100116.16
2019-04-10T10:08:08.812Z,100111.31
2019-04-10T10:13:13.103Z,100123.14
2019-04-10T10:18:17.202Z,100117.59
2019-04-10T10:23:20.725Z,100133.09
2019-04-10T10:28:24.197Z,100111.87
2019-04-10T10:33:27.959Z,100091.43
2019-04-10T10:38:31.504Z,100112.16
2019-04-10T10:43:34.973Z,100096.53
2019-04-10T10:48:38.440Z,100126.91
2019-04-10T10:53:41.901Z,100105.16
2019-04-10T10:58:46.074Z,100120.84
2019-04-10T11:03:50.745Z,100104.72
2019-04-10T11:08:55.493Z,100115.11
2019-04-10T11:13:59.097Z,100112.57
2019-04-10T11:19:02.829Z,100112.05
2019-04-10T11:24:07.008Z,100107.70
2019-04-10T11:29:11.747Z,100103.78
2019-04-10T11:34:16.578Z,100104.56
2019-04-10T11:39:25.533Z,100101.80
2019-04-10T11:44:27.289Z,100090.70
2019-04-10T11:49:31.606Z,100099.62
2019-04-10T11:54:40.987Z,100103.59
2019-04-10T11:59:41.259Z,100099.25
2019-04-10T12:04:52.999Z,100112.11
2019-04-10T12:14:56.202Z,100103.00
2019-04-10T12:20:00.534Z,100104.80
2019-04-10T12:25:05.317Z,100109.75
2019-04-10T12:30:11.148Z,100097.08
2019-04-10T12:35:15.164Z,100098.31
2019-04-10T12:40:19.505Z,100095.70
2019-04-10T12:45:24.220Z,100090.47
2019-04-10T12:50:28.701Z,100098.89
2019-04-10T12:55:32.534Z,100096.66
2019-04-10T13:00:36.176Z,100103.52
2019-04-10T13:05:39.656Z,100099.30
2019-04-10T13:10:45.474Z,100103.05
2019-04-10T13:15:49.781Z,100102.95
2019-04-10T13:20:53.700Z,100103.05
2019-04-10T13:26:01.747Z,100100.22
2019-04-10T13:31:03.487Z,100092.95
2019-04-10T13:36:07.272Z,100102.17
2019-04-10T13:41:10.770Z,100104.64
2019-04-10T13:46:14.228Z,100097.59
2019-04-10T13:51:17.694Z,100103.23
2019-04-10T13:56:21.320Z,100101.94
2019-04-10T14:01:29.401Z,100095.17
2019-04-10T14:06:33.786Z,100105.25
2019-04-10T14:11:37.513Z,100107.61
2019-04-10T14:16:41.220Z,100103.77
2019-04-10T14:21:45.607Z,100095.80
2019-04-10T14:26:52.757Z,100101.11
2019-04-10T14:31:58.638Z,100110.41
2019-04-10T14:37:03.214Z,100105.00
2019-04-10T14:42:06.781Z,100110.31
2019-04-10T14:47:11.436Z,100105.73
2019-04-10T14:52:15.655Z,100109.02
2019-04-10T14:57:19.120Z,100111.73
2019-04-10T15:02:22.583Z,100110.34
2019-04-10T15:07:26.811Z,100113.66
2019-04-10T15:12:30.381Z,100112.27
2019-04-10T15:17:33.973Z,100113.66
2019-04-10T15:22:37.900Z,100117.64
2019-04-10T15:27:41.698Z,100117.64
2019-04-10T15:32:45.441Z,100132.31
2019-04-10T15:37:49.258Z,100130.48
2019-04-10T15:42:52.735Z,100137.42
2019-04-10T15:47:58.689Z,100142.13
2019-04-10T15:53:02.162Z,100134.33
2019-04-10T15:58:06.699Z,100131.28
2019-04-10T16:03:11.281Z,100141.72
2019-04-10T16:08:16.194Z,100137.27
2019-04-10T16:13:38.696Z,100133.80
2019-04-10T16:18:42.454Z,100147.68
2019-04-10T16:23:47.729Z,100144.54
2019-04-10T16:28:51.571Z,100145.75
2019-04-10T16:33:55.119Z,100150.55
2019-04-10T16:38:58.565Z,100154.72
2019-04-10T16:44:02.527Z,100150.98
2019-04-10T16:49:06.572Z,100158.95
2019-04-10T16:54:10.490Z,100156.59
2019-04-10T16:59:14.252Z,100149.83
2019-04-10T17:04:18.912Z,100162.87
2019-04-10T17:09:24.827Z,100158.95
2019-04-10T17:14:29.322Z,100170.05
2019-04-10T17:19:44.695Z,100169.09
2019-04-10T17:24:38.073Z,100168.48
2019-04-10T17:29:41.534Z,100178.81
2019-04-10T17:34:45.205Z,100187.75
2019-04-10T17:39:49.431Z,100185.24
2019-04-10T17:44:53.993Z,100194.00
2019-04-10T17:49:58.086Z,100206.49
2019-04-10T17:55:01.631Z,100206.31
2019-04-10T18:00:22.956Z,100211.68
2019-04-10T18:05:26.655Z,100215.33
2019-04-10T18:10:41.181Z,100217.92
2019-04-10T18:15:35.838Z,100233.12
2019-04-10T18:20:40.135Z,100245.61
2019-04-10T18:25:44.451Z,100251.77
2019-04-10T18:30:48.226Z,100261.31
2019-04-10T18:35:51.796Z,100269.64
2019-04-10T18:41:00.551Z,100275.04
2019-04-10T18:46:10.246Z,100284.91
2019-04-10T18:51:07.921Z,100291.70
2019-04-10T18:56:11.191Z,100304.20
2019-04-10T19:01:19.382Z,100304.20
2019-04-10T19:06:34.297Z,100311.14
2019-04-10T19:11:38.395Z,100322.25
2019-04-10T19:16:42.173Z,100320.68
2019-04-10T19:21:46.120Z,100331.97
2019-04-10T19:26:49.712Z,100331.97
2019-04-10T19:31:54.817Z,100343.84
2019-04-10T19:37:00.540Z,100352.95
2019-04-10T19:42:05.054Z,100353.55
2019-04-10T19:47:08.519Z,100359.74
2019-04-10T19:52:12.032Z,100362.52
2019-04-10T19:57:15.446Z,100362.34
2019-04-10T20:02:19.110Z,100359.56
2019-04-10T20:07:22.847Z,100357.20
2019-04-10T20:12:26.751Z,100366.31
2019-04-10T20:17:30.303Z,100372.28
2019-04-10T20:22:33.813Z,100371.50
2019-04-10T20:27:38.279Z,100377.66
2019-04-10T20:32:42.043Z,100377.47
2019-04-10T20:37:45.506Z,100386.41
2019-04-10T20:42:48.969Z,100389.18
2019-04-10T20:47:52.436Z,100387.64
2019-04-10T20:52:55.897Z,100397.36
2019-04-10T20:57:59.678Z,100410.01
2019-04-10T21:03:03.467Z,100409.30
2019-04-10T21:08:07.001Z,100410.91
2019-04-10T21:13:10.708Z,100415.34
2019-04-10T21:18:15.239Z,100422.70
2019-04-10T21:23:19.402Z,100422.92
2019-04-10T21:28:22.882Z,100439.58
2019-04-10T21:33:43.273Z,100439.99
2019-04-10T21:38:48.979Z,100448.77
2019-04-10T21:43:52.272Z,100454.13
2019-04-10T21:48:57.363Z,100457.89
2019-04-10T21:54:02.119Z,100458.49
2019-04-10T21:59:05.758Z,100462.28
2019-04-10T22:04:10.262Z,100457.93
2019-04-10T22:09:16.610Z,100459.95
2019-04-10T22:14:21.489Z,100456.98
2019-04-10T22:19:26.220Z,100472.06
2019-04-10T22:24:29.945Z,100469.11
2019-04-10T22:29:33.425Z,100471.28
2019-04-10T22:34:36.894Z,100471.09
2019-04-10T22:39:40.371Z,100464.75
2019-04-10T22:44:46.463Z,100468.91
2019-04-10T22:49:49.296Z,100476.45
2019-04-10T22:54:53.178Z,100477.66
2019-04-10T22:59:57.424Z,100481.03
2019-04-10T23:05:01.985Z,100475.73
2019-04-10T23:15:15.412Z,100489.95
2019-04-10T23:20:18.981Z,100493.36
2019-04-10T23:25:22.560Z,100501.50
2019-04-10T23:30:26.716Z,100509.83
2019-04-10T23:35:30.275Z,100513.99
2019-04-10T23:40:34.839Z,100519.55
2019-04-10T23:45:38.360Z,100515.98
2019-04-10T23:50:42.782Z,100520.74
2019-04-10T23:55:46.280Z,100524.72
